This is the latest recevied weather packets stored in our database for station/object N7NMS-13. If no packets are shown the sender has not sent any weather packets the latest 10 day(s).
| Time | Temp. | Humidity | Pressure | Rain* | Wind** | Luminosity | Snow |
|---|---|---|---|---|---|---|---|
| 1777864962 | 7.22° C | 68% | - | 0 mm | - | - | - |
| 1777863732 | 7.78° C | 67% | - | 0 mm | - | - | - |
| 1777843392 | 14.44° C | 40% | - | 0 mm | - | - | - |
| 1777842792 | 14.44° C | 39% | - | 0 mm | - | - | - |
| 1777840362 | 14.44° C | 38% | - | 0 mm | - | - | - |
| 1777839762 | 13.89° C | 39% | - | 0 mm | - | - | - |
| 1777839133 | 14.44° C | 38% | - | 0 mm | - | - | - |
| 1777838533 | 14.44° C | 39% | - | 0 mm | - | - | - |
| 1777836703 | 13.89° C | 40% | - | 0 mm | - | - | - |
| 1777836103 | 13.89° C | 39% | - | 0 mm | - | - | - |
| 1777834873 | 13.89° C | 40% | - | 0 mm | - | - | - |
| 1777833643 | 13.33° C | 43% | - | 0 mm | - | - | - |
| 1777833043 | 12.22° C | 43% | - | 0 mm | - | - | - |
| 1777831843 | 12.22° C | 41% | - | 0 mm | - | - | - |
| 1777831213 | 13.33° C | 44% | - | 0 mm | - | - | - |
| 1777825123 | 10.56° C | 46% | - | 0 mm | - | - | - |
| 1777822723 | 9.44° C | 47% | - | 0 mm | - | - | - |
| 1777822123 | 10° C | 50% | - | 0 mm | - | - | - |
| 1777821523 | 9.44° C | 54% | - | 0 mm | - | - | - |
| 1777820323 | 8.33° C | 55% | - | 0 mm | - | - | - |
| 1777818523 | 7.78° C | 58% | - | 0 mm | - | - | - |
| 1777816693 | 7.78° C | 59% | - | 0 mm | - | - | - |
| 1777813033 | 6.11° C | 71% | - | 0 mm | - | - | - |
| 1777811803 | 5° C | 75% | - | 0 mm | - | - | - |
| 1777811203 | 4.44° C | 79% | - | 0 mm | - | - | - |
* Rain latest hour (hover to see other rain measurements)
** Current wind speed in m/s (hover to see current wind gust speed)